Time;durP1;ratioP1;P1;durP2;ratioP2;P2;SDS_P1;SDS_P2;PMS_P1;PMS_P2;Temp;Humidity;BMP_temperature;BMP_pressure;BME280_temperature;BME280_humidity;BME280_pressure;Samples;Min_cycle;Max_cycle;Signal;HPM_P1;HPM_P2
2021/09/19 00:00:10;;;;;;;4.15;3.70;;;;;20.70;101458.00;;;;5049976;28;20231;-78
2021/09/19 00:02:37;;;;;;;4.85;3.70;;;;;20.80;101460.00;;;;5066387;28;20195;-78
2021/09/19 00:05:06;;;;;;;3.85;3.45;;;;;20.70;101463.00;;;;5059188;28;20200;-78
2021/09/19 00:07:35;;;;;;;4.15;3.75;;;;;20.70;101464.00;;;;5049695;28;20194;-78
2021/09/19 00:10:03;;;;;;;5.93;3.70;;;;;20.70;101461.00;;;;5058382;28;20195;-78
2021/09/19 00:12:31;;;;;;;4.10;3.40;;;;;20.70;101466.00;;;;5067963;28;20201;-78
2021/09/19 00:14:58;;;;;;;4.28;3.40;;;;;20.70;101455.00;;;;5063551;28;20214;-78
2021/09/19 00:17:26;;;;;;;3.40;3.10;;;;;20.70;101459.00;;;;5049889;28;20191;-78
2021/09/19 00:19:53;;;;;;;4.05;3.45;;;;;20.60;101450.00;;;;5055486;28;20195;-78
2021/09/19 00:22:20;;;;;;;3.55;3.25;;;;;20.60;101451.00;;;;5069532;28;20217;-78
2021/09/19 00:24:49;;;;;;;4.10;3.70;;;;;20.60;101447.00;;;;5053997;28;20680;-78
2021/09/19 00:27:17;;;;;;;3.88;3.47;;;;;20.60;101438.00;;;;5049184;28;20203;-78
2021/09/19 00:29:45;;;;;;;3.63;3.30;;;;;20.60;101436.00;;;;5048794;28;20196;-79
2021/09/19 00:32:12;;;;;;;3.97;3.58;;;;;20.60;101438.00;;;;5050782;28;20246;-78
2021/09/19 00:34:39;;;;;;;4.30;3.63;;;;;20.60;101429.00;;;;5056367;28;20624;-78
2021/09/19 00:37:06;;;;;;;4.78;3.63;;;;;20.50;101432.00;;;;5048168;28;20238;-78
2021/09/19 00:39:33;;;;;;;4.60;4.18;;;;;20.50;101427.00;;;;5048850;28;20222;-79
2021/09/19 00:42:02;;;;;;;4.25;3.83;;;;;20.50;101427.00;;;;5057721;28;20199;-78
2021/09/19 00:44:29;;;;;;;4.65;3.97;;;;;20.50;101434.00;;;;5051085;28;20203;-78
2021/09/19 00:46:57;;;;;;;4.68;3.78;;;;;20.40;101436.00;;;;5059100;28;20203;-78
2021/09/19 00:49:24;;;;;;;4.68;3.72;;;;;20.50;101434.00;;;;5054115;28;20199;-78
2021/09/19 00:51:53;;;;;;;3.90;3.50;;;;;20.40;101427.00;;;;5046775;28;20203;-78
2021/09/19 00:54:22;;;;;;;4.13;3.72;;;;;20.40;101427.00;;;;5048519;28;20195;-78
2021/09/19 00:56:55;;;;;;;3.92;3.50;;;;;20.40;101422.00;;;;5047311;28;20258;-78
2021/09/19 00:59:24;;;;;;;4.60;4.13;;;;;20.40;101421.00;;;;5047841;28;20287;-78
2021/09/19 01:01:52;;;;;;;4.22;3.85;;;;;20.40;101427.00;;;;5047436;28;20196;-78
2021/09/19 01:04:20;;;;;;;4.05;3.65;;;;;20.40;101426.00;;;;5047730;28;20205;-77
2021/09/19 01:06:47;;;;;;;4.95;4.03;;;;;20.40;101426.00;;;;5048979;28;20207;-78
2021/09/19 01:09:16;;;;;;;6.00;3.95;;;;;20.30;101429.00;;;;5051878;28;20198;-78
2021/09/19 01:11:44;;;;;;;4.65;3.88;;;;;20.30;101425.00;;;;5057173;28;20223;-78
2021/09/19 01:14:13;;;;;;;4.32;3.63;;;;;20.30;101426.00;;;;5059397;28;20192;-78
2021/09/19 01:16:43;;;;;;;3.78;3.33;;;;;20.30;101418.00;;;;5047805;28;20230;-78
2021/09/19 01:19:16;;;;;;;4.15;3.75;;;;;20.20;101427.00;;;;5048190;28;20273;-78
2021/09/19 01:21:44;;;;;;;5.32;4.07;;;;;20.30;101421.00;;;;5048260;28;20200;-78
2021/09/19 01:24:13;;;;;;;4.60;3.63;;;;;20.20;101419.00;;;;5053961;28;20204;-78
2021/09/19 01:26:40;;;;;;;4.32;3.65;;;;;20.20;101419.00;;;;5048034;28;20204;-78
2021/09/19 01:29:08;;;;;;;3.78;3.42;;;;;20.20;101408.00;;;;5048561;28;20580;-78
2021/09/19 01:31:35;;;;;;;4.60;3.53;;;;;20.20;101407.00;;;;5048027;28;20208;-78
2021/09/19 01:34:03;;;;;;;4.47;4.07;;;;;20.20;101405.00;;;;5055220;28;20214;-79
2021/09/19 01:36:34;;;;;;;5.28;3.72;;;;;20.10;101402.00;;;;5057047;28;20230;-78
2021/09/19 01:39:01;;;;;;;4.05;3.65;;;;;20.20;101401.00;;;;5047918;28;20203;-77
2021/09/19 01:41:30;;;;;;;5.70;4.22;;;;;20.10;101398.00;;;;5053517;28;20199;-77
2021/09/19 01:43:57;;;;;;;5.18;4.25;;;;;20.10;101403.00;;;;5047175;28;20199;-77
2021/09/19 01:46:24;;;;;;;4.50;4.03;;;;;20.10;101401.00;;;;5047654;28;20203;-77
2021/09/19 01:48:52;;;;;;;5.32;4.65;;;;;20.10;101405.00;;;;5046899;28;20208;-77
2021/09/19 01:51:19;;;;;;;4.40;3.97;;;;;20.10;101397.00;;;;5047984;28;20183;-77
2021/09/19 01:53:50;;;;;;;5.55;3.92;;;;;20.10;101401.00;;;;5047218;28;20195;-77
2021/09/19 01:56:18;;;;;;;4.82;4.03;;;;;20.10;101395.00;;;;5048353;28;20226;-78
2021/09/19 01:58:49;;;;;;;4.22;3.83;;;;;20.10;101395.00;;;;5047298;28;20200;-77
2021/09/19 02:01:21;;;;;;;6.47;4.07;;;;;20.10;101397.00;;;;5046311;28;20199;-77
2021/09/19 02:03:49;;;;;;;4.75;4.15;;;;;20.10;101395.00;;;;5048047;28;20198;-77
2021/09/19 02:06:16;;;;;;;6.13;4.32;;;;;20.10;101385.00;;;;5061883;28;20199;-77
2021/09/19 02:08:44;;;;;;;7.40;3.78;;;;;20.10;101389.00;;;;5051303;28;20195;-77
2021/09/19 02:11:13;;;;;;;5.78;4.50;;;;;20.00;101380.00;;;;5060797;28;20196;-77
2021/09/19 02:13:42;;;;;;;5.45;4.35;;;;;20.00;101375.00;;;;5066418;28;20199;-77
2021/09/19 02:16:11;;;;;;;5.03;4.38;;;;;20.00;101384.00;;;;5046754;28;20314;-77
2021/09/19 02:18:39;;;;;;;4.25;3.90;;;;;20.00;101377.00;;;;5047387;28;20207;-78
2021/09/19 02:21:08;;;;;;;4.53;4.05;;;;;20.00;101377.00;;;;5047003;28;20204;-77
2021/09/19 02:23:36;;;;;;;5.28;4.50;;;;;20.00;101377.00;;;;5046125;28;20202;-77
2021/09/19 02:26:03;;;;;;;3.92;3.53;;;;;20.00;101374.00;;;;5047126;28;20203;-77
2021/09/19 02:28:31;;;;;;;5.97;4.40;;;;;20.00;101378.00;;;;5047687;28;20195;-77
2021/09/19 02:30:58;;;;;;;6.15;4.93;;;;;20.00;101371.00;;;;5049506;28;20207;-78
2021/09/19 02:33:27;;;;;;;4.60;4.20;;;;;20.00;101371.00;;;;5057324;28;20242;-77
2021/09/19 02:35:54;;;;;;;4.22;3.83;;;;;20.00;101367.00;;;;5053022;28;20195;-77
2021/09/19 02:38:21;;;;;;;5.05;4.40;;;;;20.00;101374.00;;;;5047487;28;20222;-77
2021/09/19 02:40:51;;;;;;;6.32;5.05;;;;;19.90;101371.00;;;;5046807;28;20231;-78
2021/09/19 02:43:19;;;;;;;4.38;3.97;;;;;19.90;101364.00;;;;5055957;28;20290;-77
2021/09/19 02:45:46;;;;;;;5.20;4.70;;;;;19.90;101358.00;;;;5054598;28;20729;-77
2021/09/19 02:48:13;;;;;;;4.50;3.95;;;;;19.90;101361.00;;;;5048322;28;20286;-77
2021/09/19 02:50:43;;;;;;;4.75;4.28;;;;;19.90;101365.00;;;;5047785;28;20199;-77
2021/09/19 02:53:10;;;;;;;4.95;4.45;;;;;19.90;101362.00;;;;5053925;28;20200;-77
2021/09/19 02:55:38;;;;;;;4.43;3.70;;;;;19.90;101361.00;;;;5047232;28;20195;-77
2021/09/19 02:58:05;;;;;;;4.68;4.25;;;;;19.80;101351.00;;;;5046977;28;20727;-77
2021/09/19 03:00:33;;;;;;;4.35;3.95;;;;;19.80;101357.00;;;;5047078;28;20187;-77
2021/09/19 03:03:00;;;;;;;4.03;3.63;;;;;19.80;101347.00;;;;5056851;28;20294;-77
2021/09/19 03:05:27;;;;;;;4.65;4.10;;;;;19.80;101343.00;;;;5052607;28;20188;-77
2021/09/19 03:07:56;;;;;;;4.78;3.88;;;;;19.80;101352.00;;;;5055392;28;20195;-77
2021/09/19 03:10:24;;;;;;;4.68;4.28;;;;;19.80;101348.00;;;;5057085;28;20203;-78
2021/09/19 03:12:52;;;;;;;5.30;3.85;;;;;19.80;101349.00;;;;5058785;28;20188;-77
2021/09/19 03:15:19;;;;;;;4.95;4.45;;;;;19.80;101347.00;;;;5051061;28;20187;-77
2021/09/19 03:17:47;;;;;;;6.43;4.05;;;;;19.80;101338.00;;;;5053038;28;20211;-77
2021/09/19 03:20:16;;;;;;;5.60;4.47;;;;;19.80;101334.00;;;;5055128;28;20191;-77
2021/09/19 03:22:44;;;;;;;5.30;4.18;;;;;19.80;101325.00;;;;5050267;28;20203;-77
2021/09/19 03:25:14;;;;;;;5.20;4.60;;;;;19.80;101340.00;;;;5068648;28;20191;-77
2021/09/19 03:27:42;;;;;;;4.88;3.72;;;;;19.80;101346.00;;;;5068534;28;20260;-77
2021/09/19 03:30:11;;;;;;;4.90;4.30;;;;;19.80;101339.00;;;;5050239;28;20207;-77
2021/09/19 03:32:39;;;;;;;4.93;4.40;;;;;19.80;101341.00;;;;5063661;28;20541;-78
2021/09/19 03:35:07;;;;;;;4.85;4.35;;;;;19.80;101346.00;;;;5069515;28;20211;-78
2021/09/19 03:37:34;;;;;;;5.55;4.65;;;;;19.80;101341.00;;;;5049864;28;20223;-77
2021/09/19 03:40:02;;;;;;;4.63;4.15;;;;;19.80;101343.00;;;;5050180;28;20224;-78
2021/09/19 03:42:30;;;;;;;5.50;4.35;;;;;19.70;101343.00;;;;5065585;28;20195;-78
2021/09/19 03:44:58;;;;;;;4.55;4.15;;;;;19.80;101344.00;;;;5067316;28;20199;-78
2021/09/19 03:47:25;;;;;;;5.85;4.68;;;;;19.80;101345.00;;;;5052532;28;20199;-78
2021/09/19 03:49:52;;;;;;;4.97;4.32;;;;;19.70;101336.00;;;;5047224;28;20825;-78
2021/09/19 03:52:20;;;;;;;5.05;4.55;;;;;19.70;101348.00;;;;5049722;28;20197;-77
2021/09/19 03:54:47;;;;;;;4.82;4.18;;;;;19.70;101346.00;;;;5049945;28;21048;-78
2021/09/19 03:57:14;;;;;;;5.28;4.22;;;;;19.70;101339.00;;;;5050859;28;20230;-77
2021/09/19 03:59:43;;;;;;;4.03;3.63;;;;;19.70;101339.00;;;;5049220;28;20207;-78
2021/09/19 04:02:10;;;;;;;5.40;4.50;;;;;19.70;101344.00;;;;5053941;28;20199;-77
2021/09/19 04:04:37;;;;;;;4.85;4.43;;;;;19.70;101346.00;;;;5049730;28;20214;-77
2021/09/19 04:07:05;;;;;;;6.38;4.63;;;;;19.70;101345.00;;;;5049607;28;20188;-77
2021/09/19 04:09:32;;;;;;;5.03;4.53;;;;;19.70;101352.00;;;;5051239;28;20198;-78
2021/09/19 04:11:59;;;;;;;5.28;4.50;;;;;19.70;101345.00;;;;5058305;28;20192;-77
2021/09/19 04:14:27;;;;;;;4.72;4.15;;;;;19.70;101348.00;;;;5049695;28;20200;-77
2021/09/19 04:16:55;;;;;;;5.03;4.50;;;;;19.70;101345.00;;;;5048991;28;20219;-78
2021/09/19 04:19:22;;;;;;;4.95;4.45;;;;;19.70;101344.00;;;;5049735;28;20230;-78
2021/09/19 04:21:50;;;;;;;4.97;4.47;;;;;19.70;101346.00;;;;5048757;28;20207;-77
2021/09/19 04:24:17;;;;;;;4.78;4.05;;;;;19.70;101346.00;;;;5057691;28;20657;-78
2021/09/19 04:26:44;;;;;;;4.60;4.13;;;;;19.70;101344.00;;;;5068562;28;20198;-78
2021/09/19 04:29:12;;;;;;;5.97;4.50;;;;;19.70;101343.00;;;;5065585;28;20676;-78
2021/09/19 04:31:39;;;;;;;5.22;4.72;;;;;19.70;101336.00;;;;5053010;28;20218;-77
2021/09/19 04:34:08;;;;;;;6.80;4.60;;;;;19.70;101336.00;;;;5052066;28;20942;-77
2021/09/19 04:36:35;;;;;;;5.30;4.80;;;;;19.70;101340.00;;;;5049353;28;20199;-78
2021/09/19 04:39:02;;;;;;;5.70;5.13;;;;;19.70;101340.00;;;;5066679;28;20579;-78
2021/09/19 04:41:30;;;;;;;4.90;4.40;;;;;19.70;101337.00;;;;5058028;28;20204;-78
2021/09/19 04:43:57;;;;;;;5.22;4.45;;;;;19.70;101342.00;;;;5048808;28;20206;-78
2021/09/19 04:46:24;;;;;;;6.55;4.93;;;;;19.60;101342.00;;;;5050642;28;20208;-78
2021/09/19 04:48:54;;;;;;;8.27;5.13;;;;;19.60;101335.00;;;;5047877;28;20684;-78
2021/09/19 04:51:23;;;;;;;9.52;4.72;;;;;19.60;101338.00;;;;5047602;28;20188;-78
2021/09/19 04:53:50;;;;;;;4.85;4.35;;;;;19.70;101336.00;;;;5049131;28;20230;-78
2021/09/19 04:56:17;;;;;;;5.57;4.57;;;;;19.70;101334.00;;;;5052865;28;20206;-78
2021/09/19 04:58:45;;;;;;;5.63;4.78;;;;;19.70;101332.00;;;;5049091;28;20227;-78
2021/09/19 05:01:12;;;;;;;5.15;4.28;;;;;19.70;101333.00;;;;5049266;28;20669;-78
2021/09/19 05:03:39;;;;;;;4.80;4.30;;;;;19.70;101335.00;;;;5047835;28;20192;-78
2021/09/19 05:06:06;;;;;;;6.32;4.43;;;;;19.70;101324.00;;;;5066101;28;20657;-78
2021/09/19 05:08:35;;;;;;;4.93;4.43;;;;;19.60;101322.00;;;;5048355;28;20195;-77
2021/09/19 05:11:03;;;;;;;5.88;5.25;;;;;19.60;101330.00;;;;5064759;28;20293;-77
2021/09/19 05:13:30;;;;;;;5.60;4.88;;;;;19.60;101325.00;;;;5054468;28;20203;-76
2021/09/19 05:15:57;;;;;;;5.22;4.35;;;;;19.60;101328.00;;;;5052990;28;20203;-77
2021/09/19 05:18:25;;;;;;;5.25;4.28;;;;;19.60;101328.00;;;;5067361;28;20230;-76
2021/09/19 05:20:52;;;;;;;6.88;5.53;;;;;19.60;101332.00;;;;5059026;28;20654;-77
2021/09/19 05:23:19;;;;;;;5.78;4.80;;;;;19.60;101322.00;;;;5055375;28;20195;-77
2021/09/19 05:25:49;;;;;;;7.72;5.30;;;;;19.60;101335.00;;;;5049688;28;20200;-76
2021/09/19 05:28:16;;;;;;;5.28;4.78;;;;;19.60;101329.00;;;;5055108;28;20651;-76
2021/09/19 05:30:44;;;;;;;5.15;4.47;;;;;19.60;101336.00;;;;5055150;28;20200;-76
2021/09/19 05:33:11;;;;;;;5.35;4.55;;;;;19.60;101332.00;;;;5060705;28;20204;-77
2021/09/19 05:35:38;;;;;;;4.72;4.22;;;;;19.60;101340.00;;;;5049559;28;20199;-76
2021/09/19 05:38:06;;;;;;;5.88;4.22;;;;;19.60;101336.00;;;;5056862;28;20227;-77
2021/09/19 05:40:34;;;;;;;4.68;4.07;;;;;19.70;101337.00;;;;5058543;28;20226;-77
2021/09/19 05:43:05;;;;;;;5.55;4.40;;;;;19.60;101337.00;;;;5063680;28;20203;-76
2021/09/19 05:45:32;;;;;;;4.35;3.60;;;;;19.70;101338.00;;;;5053126;28;20195;-76
2021/09/19 05:48:00;;;;;;;4.90;4.38;;;;;19.70;101340.00;;;;5058590;28;20587;-77
2021/09/19 05:50:28;;;;;;;5.13;4.13;;;;;19.70;101336.00;;;;5057745;28;20202;-77
2021/09/19 05:52:55;;;;;;;4.38;3.83;;;;;19.70;101349.00;;;;5057593;28;20194;-78
2021/09/19 05:55:24;;;;;;;5.05;4.55;;;;;19.70;101340.00;;;;5055982;28;20211;-77
2021/09/19 05:57:52;;;;;;;4.47;4.05;;;;;19.70;101344.00;;;;5054137;28;20228;-77
2021/09/19 06:00:21;;;;;;;4.82;4.20;;;;;19.70;101347.00;;;;5059698;28;20203;-77
2021/09/19 06:02:48;;;;;;;4.15;3.65;;;;;19.70;101344.00;;;;5062962;28;20622;-77
2021/09/19 06:05:15;;;;;;;5.20;4.70;;;;;19.80;101349.00;;;;5065385;28;20294;-78
2021/09/19 06:07:46;;;;;;;4.50;4.10;;;;;19.80;101352.00;;;;5068489;28;20290;-77
2021/09/19 06:10:14;;;;;;;5.38;4.20;;;;;19.80;101349.00;;;;5068294;28;20194;-77
2021/09/19 06:12:41;;;;;;;5.20;4.35;;;;;19.80;101352.00;;;;5067446;28;20190;-77
2021/09/19 06:15:10;;;;;;;9.23;7.85;;;;;19.70;101349.00;;;;5067844;28;20443;-77
2021/09/19 06:17:38;;;;;;;5.30;4.72;;;;;19.90;101362.00;;;;5049598;28;20230;-78
2021/09/19 06:20:07;;;;;;;4.93;4.25;;;;;19.90;101361.00;;;;5060778;28;20202;-78
2021/09/19 06:22:34;;;;;;;4.93;4.43;;;;;19.90;101364.00;;;;5060782;28;20199;-79
2021/09/19 06:25:02;;;;;;;6.05;4.15;;;;;19.90;101360.00;;;;5062026;28;20199;-79
2021/09/19 06:27:29;;;;;;;4.72;4.07;;;;;19.90;101364.00;;;;5068303;28;20191;-80
2021/09/19 06:29:56;;;;;;;4.55;4.15;;;;;20.00;101365.00;;;;5063209;28;20283;-80
2021/09/19 06:32:24;;;;;;;4.22;3.70;;;;;20.00;101362.00;;;;5068372;28;20615;-80
2021/09/19 06:34:56;;;;;;;4.93;3.97;;;;;20.00;101367.00;;;;5068647;28;20305;-78
2021/09/19 06:37:23;;;;;;;5.30;4.05;;;;;20.00;101365.00;;;;5055484;28;20221;-79
2021/09/19 06:39:51;;;;;;;4.70;4.20;;;;;20.00;101367.00;;;;5057819;28;20223;-80
2021/09/19 06:42:18;;;;;;;4.05;3.58;;;;;20.10;101363.00;;;;5059574;28;20226;-79
2021/09/19 06:44:45;;;;;;;4.40;4.00;;;;;20.10;101370.00;;;;5052886;28;20206;-79
2021/09/19 06:47:12;;;;;;;4.75;4.32;;;;;20.10;101368.00;;;;5055841;28;20218;-82
2021/09/19 06:49:43;;;;;;;4.32;3.88;;;;;20.20;101376.00;;;;5057532;28;20200;-80
2021/09/19 06:52:12;;;;;;;6.15;3.80;;;;;20.20;101371.00;;;;5056687;28;20281;-79
2021/09/19 06:54:39;;;;;;;4.78;3.65;;;;;20.20;101373.00;;;;5054899;28;20199;-79
2021/09/19 06:57:07;;;;;;;3.80;3.45;;;;;20.20;101369.00;;;;5056887;28;20187;-79
2021/09/19 06:59:34;;;;;;;5.50;3.92;;;;;20.30;101374.00;;;;5055791;28;20203;-80
2021/09/19 07:02:01;;;;;;;4.13;3.72;;;;;20.30;101381.00;;;;5057122;28;20692;-79
2021/09/19 07:04:28;;;;;;;4.85;4.00;;;;;20.30;101374.00;;;;5058024;28;20202;-79
2021/09/19 07:06:56;;;;;;;4.70;3.97;;;;;20.30;101376.00;;;;5061151;28;20204;-80
2021/09/19 07:09:24;;;;;;;4.97;4.50;;;;;20.30;101378.00;;;;5058026;28;20657;-80
2021/09/19 07:11:52;;;;;;;6.20;3.60;;;;;20.40;101375.00;;;;5053578;28;20188;-79
2021/09/19 07:14:19;;;;;;;6.88;4.15;;;;;20.40;101374.00;;;;5056283;28;20198;-79
2021/09/19 07:16:46;;;;;;;4.38;3.92;;;;;20.40;101383.00;;;;5069805;28;20266;-79
2021/09/19 07:19:13;;;;;;;4.25;3.80;;;;;20.40;101375.00;;;;5068753;28;20253;-79
2021/09/19 07:21:41;;;;;;;5.15;4.63;;;;;20.40;101373.00;;;;5054313;28;20249;-79
2021/09/19 07:24:08;;;;;;;4.65;3.83;;;;;20.50;101381.00;;;;5061175;28;20199;-80
2021/09/19 07:26:37;;;;;;;4.38;3.65;;;;;20.40;101392.00;;;;5069743;28;20195;-79
2021/09/19 07:29:05;;;;;;;5.30;4.45;;;;;20.50;101393.00;;;;5050263;28;20584;-80
2021/09/19 07:31:33;;;;;;;4.22;3.83;;;;;20.50;101389.00;;;;5049905;28;20203;-79
2021/09/19 07:34:01;;;;;;;4.00;3.55;;;;;20.60;101392.00;;;;5049243;28;20215;-79
2021/09/19 07:36:31;;;;;;;4.53;4.13;;;;;20.60;101395.00;;;;5051242;28;20218;-79
2021/09/19 07:39:01;;;;;;;4.75;4.22;;;;;20.70;101391.00;;;;5049687;28;20223;-79
2021/09/19 07:41:28;;;;;;;5.15;4.43;;;;;20.70;101387.00;;;;5050631;28;20218;-79
2021/09/19 07:43:58;;;;;;;3.95;3.60;;;;;20.80;101394.00;;;;5062994;28;20203;-79
2021/09/19 07:46:26;;;;;;;5.95;4.00;;;;;20.90;101401.00;;;;5049576;28;20191;-79
2021/09/19 07:48:53;;;;;;;4.53;4.13;;;;;20.90;101397.00;;;;5054317;28;20551;-77
2021/09/19 07:51:23;;;;;;;3.65;3.35;;;;;21.00;101402.00;;;;5055140;28;20211;-78
2021/09/19 07:53:51;;;;;;;4.47;3.80;;;;;21.10;101398.00;;;;5051752;28;20844;-77
2021/09/19 07:56:20;;;;;;;4.28;3.70;;;;;21.20;101405.00;;;;5057117;28;20257;-78
2021/09/19 07:58:47;;;;;;;3.78;3.13;;;;;21.20;101401.00;;;;5069393;28;20225;-78
2021/09/19 08:01:16;;;;;;;3.90;3.50;;;;;21.30;101403.00;;;;5069786;28;20273;-77
2021/09/19 08:03:43;;;;;;;4.18;3.78;;;;;21.40;101406.00;;;;5056399;28;20250;-77
2021/09/19 08:06:10;;;;;;;3.95;3.15;;;;;21.50;101412.00;;;;5055123;28;20597;-77
2021/09/19 08:08:37;;;;;;;4.25;3.65;;;;;21.50;101412.00;;;;5050632;28;20204;-78
2021/09/19 08:11:05;;;;;;;3.47;3.15;;;;;21.60;101410.00;;;;5055878;28;20249;-78
2021/09/19 08:13:32;;;;;;;3.53;3.22;;;;;21.70;101403.00;;;;5056981;28;20191;-77
2021/09/19 08:15:59;;;;;;;3.47;2.92;;;;;21.80;101410.00;;;;5065105;28;20716;-78
2021/09/19 08:18:28;;;;;;;3.15;2.83;;;;;21.90;101406.00;;;;5049599;28;20262;-77
2021/09/19 08:20:55;;;;;;;3.20;2.90;;;;;22.00;101407.00;;;;5050024;28;20218;-77
2021/09/19 08:23:22;;;;;;;3.92;2.90;;;;;22.10;101411.00;;;;5052531;28;20207;-77
2021/09/19 08:25:50;;;;;;;2.58;2.25;;;;;22.10;101412.00;;;;5068407;28;20207;-77
2021/09/19 08:28:17;;;;;;;3.13;2.58;;;;;22.20;101409.00;;;;5068470;28;20199;-77
2021/09/19 08:30:44;;;;;;;2.63;2.42;;;;;22.30;101414.00;;;;5050905;28;20695;-77
2021/09/19 08:33:11;;;;;;;2.70;2.50;;;;;22.40;101407.00;;;;5048394;28;20203;-78
2021/09/19 08:35:40;;;;;;;3.17;2.58;;;;;22.50;101415.00;;;;5050398;28;20191;-77
2021/09/19 08:38:08;;;;;;;2.15;1.80;;;;;22.60;101401.00;;;;5048910;28;20298;-76
2021/09/19 08:40:35;;;;;;;1.77;1.67;;;;;22.70;101402.00;;;;5061710;28;20230;-77
2021/09/19 08:43:05;;;;;;;2.33;2.13;;;;;22.80;101408.00;;;;5055279;28;20203;-76
2021/09/19 08:45:32;;;;;;;3.58;2.08;;;;;22.90;101411.00;;;;5054282;28;20258;-77
2021/09/19 08:48:00;;;;;;;2.13;1.80;;;;;23.00;101412.00;;;;5048474;28;20208;-76
2021/09/19 08:50:27;;;;;;;2.00;1.50;;;;;23.10;101413.00;;;;5048875;28;20684;-77
2021/09/19 08:52:56;;;;;;;2.50;1.88;;;;;23.20;101413.00;;;;5052708;28;20214;-77
2021/09/19 08:55:23;;;;;;;2.28;1.55;;;;;23.30;101410.00;;;;5063414;28;20191;-76
2021/09/19 08:57:50;;;;;;;1.90;1.75;;;;;23.40;101412.00;;;;5062062;28;20195;-77
2021/09/19 09:00:18;;;;;;;1.58;1.48;;;;;23.40;101413.00;;;;5065350;28;20203;-77
2021/09/19 09:02:48;;;;;;;2.60;1.38;;;;;23.50;101421.00;;;;5052139;28;20215;-77
2021/09/19 09:05:24;;;;;;;1.40;1.30;;;;;23.60;101419.00;;;;5049311;28;20192;-78
2021/09/19 09:08:00;;;;;;;3.45;1.70;;;;;23.70;101426.00;;;;5053474;28;20191;-77
2021/09/19 09:10:34;;;;;;;1.73;1.50;;;;;23.80;101426.00;;;;5056276;28;20198;-77
2021/09/19 09:13:03;;;;;;;3.70;1.65;;;;;24.00;101422.00;;;;5062282;28;20199;-77
2021/09/19 09:15:35;;;;;;;3.33;1.65;;;;;24.10;101429.00;;;;5050932;28;20204;-78
2021/09/19 09:18:05;;;;;;;1.80;1.67;;;;;24.20;101420.00;;;;5056539;28;20187;-78
2021/09/19 09:20:53;;;;;;;2.10;1.67;;;;;24.20;101423.00;;;;5056949;28;20230;-78
2021/09/19 09:23:31;;;;;;;2.47;1.90;;;;;24.40;101419.00;;;;5049285;28;20278;-78
2021/09/19 09:26:16;;;;;;;1.98;1.58;;;;;24.40;101415.00;;;;5051600;28;20199;-78
2021/09/19 09:28:46;;;;;;;2.15;1.48;;;;;24.60;101408.00;;;;5060451;28;20210;-78
2021/09/19 09:31:18;;;;;;;2.35;1.60;;;;;24.70;101413.00;;;;5067627;28;20202;-78
2021/09/19 09:33:56;;;;;;;1.65;1.55;;;;;24.70;101422.00;;;;5061902;28;20207;-78
2021/09/19 09:36:35;;;;;;;1.85;1.50;;;;;24.80;101418.00;;;;5047955;28;20210;-79
2021/09/19 09:39:22;;;;;;;2.20;1.67;;;;;24.90;101419.00;;;;5048804;28;20219;-78
2021/09/19 09:41:50;;;;;;;2.13;1.58;;;;;25.10;101425.00;;;;5048571;28;20209;-77
2021/09/19 09:44:41;;;;;;;3.00;1.52;;;;;25.10;101426.00;;;;5066786;28;20206;-77
2021/09/19 09:47:17;;;;;;;4.03;1.83;;;;;25.30;101421.00;;;;5047924;28;20202;-78
2021/09/19 09:49:47;;;;;;;2.75;1.80;;;;;25.30;101420.00;;;;5055064;28;20210;-77
2021/09/19 09:52:19;;;;;;;2.95;1.83;;;;;25.30;101420.00;;;;5048494;28;20658;-78
2021/09/19 09:54:51;;;;;;;2.33;2.03;;;;;25.40;101421.00;;;;5053344;28;20606;-78
2021/09/19 09:57:48;;;;;;;1.77;1.67;;;;;25.40;101419.00;;;;5065315;28;20202;-80
2021/09/19 10:00:17;;;;;;;2.05;1.90;;;;;25.60;101416.00;;;;5052081;28;20727;-82
2021/09/19 10:02:48;;;;;;;2.30;2.10;;;;;25.70;101420.00;;;;5067063;28;20285;-82
2021/09/19 10:05:17;;;;;;;2.25;1.90;;;;;25.70;101428.00;;;;5067850;28;20199;-81
2021/09/19 10:07:45;;;;;;;2.75;2.15;;;;;25.80;101429.00;;;;5059677;28;20203;-81
2021/09/19 10:10:16;;;;;;;2.75;2.03;;;;;25.80;101433.00;;;;5064031;28;20793;-81
2021/09/19 10:12:45;;;;;;;2.22;2.00;;;;;25.90;101434.00;;;;5061972;28;20191;-81
2021/09/19 10:15:13;;;;;;;2.78;2.17;;;;;26.00;101445.00;;;;5051953;28;20226;-81
2021/09/19 10:17:40;;;;;;;3.03;2.20;;;;;26.10;101440.00;;;;5057327;28;20206;-81
2021/09/19 10:20:13;;;;;;;2.30;2.10;;;;;26.10;101438.00;;;;5062064;28;20225;-81
2021/09/19 10:22:48;;;;;;;2.15;1.67;;;;;26.20;101438.00;;;;5048629;28;20196;-82
2021/09/19 10:25:44;;;;;;;2.72;2.10;;;;;26.30;101436.00;;;;5061375;28;20191;-82
2021/09/19 10:28:27;;;;;;;3.15;2.33;;;;;26.40;101439.00;;;;5063134;28;20203;-81
2021/09/19 10:31:32;;;;;;;2.10;1.90;;;;;26.40;101439.00;;;;5051231;28;20206;-81
2021/09/19 10:34:02;;;;;;;2.80;2.50;;;;;26.50;101441.00;;;;5061019;28;20210;-81
2021/09/19 10:36:49;;;;;;;1.85;1.73;;;;;26.50;101435.00;;;;5061359;28;20183;-81
2021/09/19 10:39:23;;;;;;;2.65;1.70;;;;;26.60;101432.00;;;;5052041;28;20234;-81
2021/09/19 10:42:19;;;;;;;2.28;2.00;;;;;26.70;101436.00;;;;5055135;28;20199;-81
2021/09/19 10:45:00;;;;;;;3.05;1.63;;;;;26.80;101432.00;;;;5055895;28;20201;-82
2021/09/19 10:47:31;;;;;;;2.33;1.77;;;;;26.90;101431.00;;;;5058620;28;20308;-81
2021/09/19 10:50:21;;;;;;;2.20;2.00;;;;;26.90;101430.00;;;;5059342;28;20199;-81
2021/09/19 10:52:51;;;;;;;4.93;1.92;;;;;27.10;101419.00;;;;5058281;28;20234;-82
2021/09/19 10:55:25;;;;;;;1.70;1.60;;;;;27.10;101424.00;;;;5051223;28;20676;-81
2021/09/19 10:58:04;;;;;;;3.85;1.75;;;;;27.20;101421.00;;;;5059304;28;20283;-81
2021/09/19 11:00:33;;;;;;;3.30;1.65;;;;;27.30;101422.00;;;;5071134;28;20231;-81
2021/09/19 11:03:19;;;;;;;4.30;2.33;;;;;27.40;101427.00;;;;5065917;28;20312;-81
2021/09/19 11:05:49;;;;;;;2.63;2.10;;;;;27.50;101420.00;;;;5051154;28;20257;-80
2021/09/19 11:08:39;;;;;;;2.13;1.92;;;;;27.50;101435.00;;;;5051429;28;20202;-80
2021/09/19 11:11:19;;;;;;;2.10;1.90;;;;;27.60;101433.00;;;;5050016;28;20198;-80
2021/09/19 11:13:56;;;;;;;2.50;2.15;;;;;27.70;101431.00;;;;5050568;28;20227;-81
2021/09/19 11:16:34;;;;;;;2.83;2.53;;;;;27.70;101439.00;;;;5050436;28;20200;-81
2021/09/19 11:19:04;;;;;;;2.45;2.25;;;;;27.80;101440.00;;;;5049621;28;20801;-80
2021/09/19 11:21:35;;;;;;;3.30;1.55;;;;;27.80;101439.00;;;;5049929;28;20195;-80
2021/09/19 11:24:06;;;;;;;2.58;2.38;;;;;27.80;101434.00;;;;5054195;28;20195;-80
2021/09/19 11:26:36;;;;;;;2.75;1.88;;;;;27.80;101438.00;;;;5050822;28;20995;-80
2021/09/19 11:29:08;;;;;;;2.05;1.85;;;;;27.70;101441.00;;;;5051488;28;20196;-79
2021/09/19 11:31:36;;;;;;;2.67;2.20;;;;;27.70;101435.00;;;;5056923;28;20202;-78
2021/09/19 11:34:08;;;;;;;2.47;2.28;;;;;27.70;101437.00;;;;5057597;28;20243;-78
2021/09/19 11:36:39;;;;;;;1.70;1.60;;;;;27.80;101431.00;;;;5053290;28;20194;-78
2021/09/19 11:39:07;;;;;;;2.33;1.80;;;;;27.80;101431.00;;;;5052272;28;20215;-78
2021/09/19 11:41:35;;;;;;;2.20;2.00;;;;;27.90;101428.00;;;;5052485;28;20199;-79
2021/09/19 11:44:02;;;;;;;1.70;1.60;;;;;27.90;101430.00;;;;5061560;28;20237;-79
2021/09/19 11:46:31;;;;;;;2.65;2.10;;;;;27.90;101426.00;;;;5056707;28;20195;-79
2021/09/19 11:48:59;;;;;;;2.70;1.77;;;;;27.90;101427.00;;;;5054958;28;20210;-80
2021/09/19 11:51:26;;;;;;;1.70;1.60;;;;;28.00;101417.00;;;;5056361;28;20205;-78
2021/09/19 11:53:56;;;;;;;1.58;1.48;;;;;28.00;101428.00;;;;5062218;28;20203;-82
2021/09/19 11:56:26;;;;;;;1.23;1.10;;;;;28.10;101420.00;;;;5055369;28;20199;-81
2021/09/19 11:58:54;;;;;;;2.55;1.48;;;;;28.10;101412.00;;;;5048743;28;20188;-81
2021/09/19 12:01:26;;;;;;;3.88;1.67;;;;;28.10;101418.00;;;;5056871;28;20187;-80
2021/09/19 12:04:04;;;;;;;1.33;1.10;;;;;28.10;101428.00;;;;5065210;28;21067;-81
2021/09/19 12:06:32;;;;;;;1.55;1.20;;;;;28.20;101423.00;;;;5050065;28;20292;-81
2021/09/19 12:09:00;;;;;;;2.70;1.48;;;;;28.20;101426.00;;;;5067455;28;20195;-81
2021/09/19 12:11:42;;;;;;;1.33;0.90;;;;;28.10;101427.00;;;;5063143;28;20194;-80
2021/09/19 12:14:19;;;;;;;1.17;1.08;;;;;28.10;101417.00;;;;5050755;28;20204;-81
2021/09/19 12:17:04;;;;;;;0.98;0.88;;;;;28.10;101423.00;;;;5067867;28;20668;-80
2021/09/19 12:19:34;;;;;;;2.28;1.05;;;;;28.20;101422.00;;;;5065038;28;20222;-80